createdAt,value
2023-02-14T00:01:14.683Z,29.08
2023-02-14T00:03:41.707Z,31.20
2023-02-14T00:06:11.803Z,29.83
2023-02-14T00:08:40.832Z,30.58
2023-02-14T00:11:08.962Z,29.42
2023-02-14T00:13:36.005Z,28.13
2023-02-14T00:16:03.517Z,26.33
2023-02-14T00:18:50.551Z,30.60
2023-02-14T00:23:44.568Z,26.52
2023-02-14T00:26:21.939Z,28.05
2023-02-14T00:28:49.268Z,26.15
2023-02-14T00:31:16.289Z,29.70
2023-02-14T00:33:43.466Z,31.48
2023-02-14T00:36:11.051Z,26.27
2023-02-14T00:38:38.031Z,28.75
2023-02-14T00:41:05.284Z,29.63
2023-02-14T00:43:32.331Z,29.30
2023-02-14T00:45:59.351Z,27.73
2023-02-14T00:48:26.464Z,31.83
2023-02-14T00:50:54.774Z,29.42
2023-02-14T00:53:21.923Z,33.55
2023-02-14T00:55:50.293Z,26.35
2023-02-14T00:58:17.108Z,29.65
2023-02-14T01:00:44.191Z,28.77
2023-02-14T01:03:11.234Z,27.02
2023-02-14T01:05:38.314Z,30.35
2023-02-14T01:08:05.861Z,30.17
2023-02-14T01:10:32.986Z,25.05
2023-02-14T01:13:00.025Z,29.80
2023-02-14T01:15:28.888Z,30.83
2023-02-14T01:17:55.936Z,31.83
2023-02-14T01:20:23.234Z,33.85
2023-02-14T01:22:50.216Z,27.13
2023-02-14T01:25:17.780Z,27.67
2023-02-14T01:27:47.550Z,31.20
2023-02-14T01:30:15.280Z,28.10
2023-02-14T01:32:42.428Z,27.30
2023-02-14T01:35:10.370Z,28.75
2023-02-14T01:37:37.864Z,29.10
2023-02-14T01:40:08.903Z,27.20
2023-02-14T01:42:36.980Z,31.58
2023-02-14T01:45:21.354Z,27.08
2023-02-14T01:47:54.528Z,29.13
2023-02-14T01:50:29.959Z,31.02
2023-02-14T01:53:03.009Z,24.70
2023-02-14T01:55:34.039Z,26.05
2023-02-14T01:58:14.993Z,27.77
2023-02-14T02:00:59.785Z,27.52
2023-02-14T02:03:44.317Z,31.33
2023-02-14T02:06:26.361Z,27.13
2023-02-14T02:09:34.361Z,29.27
2023-02-14T02:14:29.239Z,24.67
2023-02-14T02:17:36.682Z,23.88
2023-02-14T02:20:34.215Z,23.40
2023-02-14T02:26:10.871Z,28.77
2023-02-14T02:28:58.485Z,32.75
2023-02-14T02:31:53.668Z,27.60
2023-02-14T02:34:38.846Z,27.83
2023-02-14T02:37:57.315Z,27.13
2023-02-14T02:41:08.402Z,27.08
2023-02-14T02:44:10.401Z,22.88
2023-02-14T02:47:02.873Z,28.05
2023-02-14T02:50:11.533Z,27.80
2023-02-14T02:53:04.172Z,26.83
2023-02-14T02:55:56.157Z,27.55
2023-02-14T02:58:38.026Z,27.15
2023-02-14T03:01:15.451Z,28.25
2023-02-14T03:04:07.071Z,31.02
2023-02-14T03:06:34.460Z,34.53
2023-02-14T03:09:33.825Z,23.45
2023-02-14T03:12:29.675Z,27.88
2023-02-14T03:15:27.979Z,27.73
2023-02-14T03:18:14.222Z,30.58
2023-02-14T03:21:05.229Z,28.17
2023-02-14T03:23:39.630Z,28.05
2023-02-14T03:26:17.600Z,26.98
2023-02-14T03:28:51.272Z,30.38
2023-02-14T03:31:27.767Z,26.40
2023-02-14T03:36:41.222Z,26.73
2023-02-14T03:39:18.319Z,25.83
2023-02-14T03:42:06.107Z,27.00
2023-02-14T03:44:35.329Z,28.38
2023-02-14T03:47:11.770Z,26.10
2023-02-14T03:49:50.338Z,27.20
2023-02-14T03:52:19.796Z,29.23
2023-02-14T03:54:49.470Z,28.85
2023-02-14T03:57:35.000Z,28.70
2023-02-14T04:00:03.020Z,32.95
2023-02-14T04:02:54.625Z,25.63
2023-02-14T04:05:27.806Z,26.65
2023-02-14T04:07:58.320Z,31.13
2023-02-14T04:10:27.024Z,28.10
2023-02-14T04:12:54.484Z,28.30
2023-02-14T04:15:21.857Z,30.50
2023-02-14T04:18:07.954Z,29.75
2023-02-14T04:20:35.572Z,26.95
2023-02-14T04:23:03.720Z,30.17
2023-02-14T04:25:31.481Z,29.55
2023-02-14T04:27:58.646Z,30.02
2023-02-14T04:30:25.752Z,30.95
2023-02-14T04:32:52.859Z,28.92
2023-02-14T04:35:20.122Z,28.80
2023-02-14T04:37:47.048Z,30.45
2023-02-14T04:40:17.266Z,30.50
2023-02-14T04:42:46.540Z,29.10
2023-02-14T04:45:13.970Z,29.85
2023-02-14T04:47:41.008Z,28.63
2023-02-14T04:50:08.849Z,25.88
2023-02-14T04:52:35.783Z,27.98
2023-02-14T04:55:04.444Z,25.80
2023-02-14T04:57:31.626Z,29.30
2023-02-14T04:59:58.784Z,26.50
2023-02-14T05:02:26.066Z,27.83
2023-02-14T05:04:53.007Z,23.75
2023-02-14T05:07:19.997Z,25.83
2023-02-14T05:09:47.109Z,25.90
2023-02-14T05:12:15.724Z,27.85
2023-02-14T05:14:43.035Z,25.67
2023-02-14T05:17:09.982Z,25.85
2023-02-14T05:19:37.085Z,26.05
2023-02-14T05:22:04.177Z,27.48
2023-02-14T05:24:31.343Z,24.85
2023-02-14T05:26:58.293Z,26.48
2023-02-14T05:29:25.315Z,26.05
2023-02-14T05:31:53.662Z,26.33
2023-02-14T05:34:21.869Z,25.95
2023-02-14T05:36:49.119Z,24.00
2023-02-14T05:39:16.372Z,23.27
2023-02-14T05:41:45.392Z,25.48
2023-02-14T05:44:13.516Z,25.40
2023-02-14T05:46:41.525Z,24.40
2023-02-14T05:49:09.469Z,26.73
2023-02-14T05:51:36.734Z,23.42
2023-02-14T05:54:03.891Z,30.48
2023-02-14T05:56:30.843Z,27.20
2023-02-14T05:58:57.894Z,25.00
2023-02-14T06:01:25.248Z,28.48
2023-02-14T06:03:52.519Z,27.98
2023-02-14T06:06:19.700Z,25.35
2023-02-14T06:08:47.109Z,24.83
2023-02-14T06:11:14.174Z,28.30
2023-02-14T06:13:41.535Z,27.30
2023-02-14T06:16:08.825Z,26.17
2023-02-14T06:18:36.322Z,26.63
2023-02-14T06:21:03.571Z,30.15
2023-02-14T06:23:30.995Z,27.60
2023-02-14T06:25:58.052Z,23.75
2023-02-14T06:28:25.089Z,26.83
2023-02-14T06:30:52.337Z,25.85
2023-02-14T06:33:19.541Z,27.92
2023-02-14T06:35:46.651Z,28.50
2023-02-14T06:38:13.657Z,30.52
2023-02-14T06:40:40.529Z,28.35
2023-02-14T06:43:07.566Z,34.55
2023-02-14T06:45:34.571Z,29.90
2023-02-14T06:48:01.531Z,29.67
2023-02-14T06:50:28.496Z,30.90
2023-02-14T06:52:55.809Z,33.50
2023-02-14T06:55:23.059Z,32.85
2023-02-14T06:57:50.088Z,32.47
2023-02-14T07:00:17.979Z,31.13
2023-02-14T07:02:45.558Z,28.90
2023-02-14T07:05:12.735Z,30.25
2023-02-14T07:07:39.643Z,31.30
2023-02-14T07:10:07.598Z,35.05
2023-02-14T07:12:34.941Z,28.52
2023-02-14T07:15:02.084Z,33.75
2023-02-14T07:17:29.207Z,29.58
2023-02-14T07:19:56.131Z,34.88
2023-02-14T07:22:23.218Z,37.10
2023-02-14T07:24:50.287Z,33.92
2023-02-14T07:27:17.494Z,33.65
2023-02-14T07:29:44.525Z,40.10
2023-02-14T07:32:11.804Z,35.30
2023-02-14T07:34:39.023Z,36.85
2023-02-14T07:37:06.211Z,30.55
2023-02-14T07:39:33.416Z,32.50
2023-02-14T07:42:00.664Z,35.80
2023-02-14T07:44:27.725Z,37.60
2023-02-14T07:46:54.714Z,42.45
2023-02-14T07:49:22.377Z,34.25
2023-02-14T07:51:49.718Z,36.03
2023-02-14T07:54:16.900Z,34.83
2023-02-14T07:56:44.005Z,35.05
2023-02-14T07:59:11.019Z,34.55
2023-02-14T08:01:37.954Z,33.13
2023-02-14T08:04:05.282Z,32.47
2023-02-14T08:06:32.332Z,41.75
2023-02-14T08:08:59.623Z,32.70
2023-02-14T08:11:45.664Z,33.85
2023-02-14T08:14:13.054Z,33.70
2023-02-14T08:16:40.122Z,38.08
2023-02-14T08:19:07.030Z,34.63
2023-02-14T08:21:34.749Z,34.53
2023-02-14T08:24:01.938Z,39.75
2023-02-14T08:26:29.038Z,46.08
2023-02-14T08:28:56.037Z,33.05
2023-02-14T08:31:35.740Z,34.53
2023-02-14T08:34:05.214Z,31.10
2023-02-14T08:36:33.266Z,35.30
2023-02-14T08:39:00.429Z,40.83
2023-02-14T08:41:27.593Z,34.25
2023-02-14T08:43:54.660Z,35.75
2023-02-14T08:46:21.597Z,32.50
2023-02-14T08:48:50.367Z,35.13
2023-02-14T08:51:17.274Z,35.45
2023-02-14T08:53:44.417Z,37.38
2023-02-14T08:56:14.368Z,31.88
2023-02-14T08:58:41.819Z,32.20
2023-02-14T09:01:17.723Z,33.05
2023-02-14T09:03:45.281Z,32.97
2023-02-14T09:06:35.897Z,57.72
2023-02-14T09:09:03.022Z,34.55
2023-02-14T09:11:29.983Z,36.15
2023-02-14T09:13:58.000Z,36.30
2023-02-14T09:16:25.982Z,36.03
2023-02-14T09:18:54.584Z,35.30
2023-02-14T09:21:25.961Z,29.00
2023-02-14T09:23:53.246Z,33.47
2023-02-14T09:26:20.285Z,33.97
2023-02-14T09:28:47.738Z,37.22
2023-02-14T09:31:24.025Z,33.20
2023-02-14T09:33:51.437Z,32.70
2023-02-14T09:36:18.276Z,31.75
2023-02-14T09:38:45.413Z,32.35
2023-02-14T09:41:28.795Z,36.53
2023-02-14T09:44:13.366Z,32.38
2023-02-14T09:46:51.699Z,32.53
2023-02-14T09:49:29.666Z,32.67
2023-02-14T09:51:57.387Z,36.28
2023-02-14T09:54:28.527Z,33.90
2023-02-14T09:57:10.897Z,29.73
2023-02-14T09:59:50.866Z,32.85
2023-02-14T10:02:54.773Z,32.35
2023-02-14T10:05:33.936Z,28.40
2023-02-14T10:08:12.580Z,30.55
2023-02-14T10:10:53.227Z,30.10
2023-02-14T10:13:31.427Z,28.25
2023-02-14T10:16:31.559Z,30.58
2023-02-14T10:19:08.075Z,30.27
2023-02-14T10:21:43.909Z,28.10
2023-02-14T10:24:40.799Z,24.60
2023-02-14T10:27:32.693Z,26.58
2023-02-14T10:30:00.150Z,27.42
2023-02-14T10:32:38.453Z,27.15
2023-02-14T10:35:16.418Z,29.17
2023-02-14T10:38:17.364Z,29.65
2023-02-14T10:41:04.608Z,26.08
2023-02-14T10:43:52.706Z,26.92
2023-02-14T10:46:47.485Z,29.17
2023-02-14T10:49:40.690Z,28.88
2023-02-14T10:52:44.302Z,29.13
2023-02-14T10:55:55.220Z,29.15
2023-02-14T10:58:24.479Z,26.08
2023-02-14T11:01:08.486Z,25.55
2023-02-14T11:03:38.285Z,26.02
2023-02-14T11:06:06.113Z,33.05
2023-02-14T11:08:38.817Z,24.48
2023-02-14T11:11:25.386Z,26.65
2023-02-14T11:13:52.874Z,25.50
2023-02-14T11:16:36.150Z,22.58
2023-02-14T11:19:15.627Z,26.30
2023-02-14T11:21:45.814Z,25.58
2023-02-14T11:24:19.968Z,23.30
2023-02-14T11:26:54.337Z,23.77
2023-02-14T11:29:34.192Z,24.70
2023-02-14T11:32:26.438Z,23.70
2023-02-14T11:35:00.857Z,29.48
2023-02-14T11:37:53.460Z,27.75
2023-02-14T11:40:37.991Z,24.75
2023-02-14T11:43:14.269Z,26.70
2023-02-14T11:45:48.181Z,27.27
2023-02-14T11:48:41.979Z,25.48
2023-02-14T11:51:15.987Z,27.63
2023-02-14T11:54:00.801Z,26.10
2023-02-14T11:56:53.691Z,24.90
2023-02-14T11:59:44.091Z,26.90
2023-02-14T12:02:39.130Z,29.85
2023-02-14T12:05:26.445Z,24.70
2023-02-14T12:07:58.597Z,24.55
2023-02-14T12:10:37.212Z,23.70
2023-02-14T12:13:25.414Z,25.52
2023-02-14T12:15:57.959Z,24.45
2023-02-14T12:18:48.766Z,24.77
2023-02-14T12:21:39.054Z,24.60
2023-02-14T12:24:17.405Z,24.52
2023-02-14T12:27:00.150Z,25.67
2023-02-14T12:29:37.772Z,30.00
2023-02-14T12:32:28.049Z,23.90
2023-02-14T12:35:16.060Z,23.80
2023-02-14T12:38:07.464Z,22.05
2023-02-14T12:40:37.284Z,31.42
2023-02-14T12:43:45.557Z,27.50
2023-02-14T12:46:53.149Z,24.83
2023-02-14T12:50:15.421Z,21.65
2023-02-14T12:53:38.989Z,27.55
2023-02-14T12:56:31.443Z,21.98
2023-02-14T12:59:26.045Z,23.58
2023-02-14T13:02:45.952Z,25.98
2023-02-14T13:05:54.873Z,26.02
2023-02-14T13:09:14.610Z,24.35
2023-02-14T13:12:02.269Z,39.10
2023-02-14T13:15:09.259Z,22.90
2023-02-14T13:17:55.199Z,26.55
2023-02-14T13:20:41.829Z,25.88
2023-02-14T13:23:38.505Z,24.85
2023-02-14T13:26:18.151Z,25.70
2023-02-14T13:28:55.392Z,23.83
2023-02-14T13:31:22.756Z,23.90
2023-02-14T13:34:02.284Z,26.35
2023-02-14T13:36:31.259Z,25.20
2023-02-14T13:39:00.355Z,27.88
2023-02-14T13:41:28.414Z,34.35
2023-02-14T13:44:01.373Z,26.42
2023-02-14T13:46:34.516Z,27.73
2023-02-14T13:49:30.527Z,27.10
2023-02-14T13:52:03.974Z,27.02
2023-02-14T13:54:47.431Z,28.60
2023-02-14T13:57:43.861Z,28.70
2023-02-14T14:00:19.211Z,25.08
2023-02-14T14:02:55.561Z,29.85
2023-02-14T14:05:38.398Z,32.80
2023-02-14T14:08:20.348Z,29.08
2023-02-14T14:10:52.944Z,28.30
2023-02-14T14:13:42.022Z,32.22
2023-02-14T14:16:33.563Z,28.23
2023-02-14T14:19:18.798Z,30.52
2023-02-14T14:22:02.440Z,29.58
2023-02-14T14:24:35.377Z,28.15
2023-02-14T14:27:24.223Z,33.42
2023-02-14T14:30:04.391Z,31.60
2023-02-14T14:32:38.110Z,29.92
2023-02-14T14:35:13.198Z,30.38
2023-02-14T14:37:57.221Z,28.45
2023-02-14T14:40:32.076Z,32.60
2023-02-14T14:43:15.661Z,31.30
2023-02-14T14:45:47.032Z,29.02
2023-02-14T14:48:26.732Z,30.30
2023-02-14T14:50:54.840Z,29.40
2023-02-14T14:53:37.302Z,31.75
2023-02-14T14:56:04.453Z,29.02
2023-02-14T14:58:36.366Z,29.20
2023-02-14T15:01:05.901Z,28.63
2023-02-14T15:03:33.405Z,31.90
2023-02-14T15:06:19.595Z,28.02
2023-02-14T15:08:48.633Z,29.27
2023-02-14T15:11:46.369Z,25.15
2023-02-14T15:14:22.500Z,27.77
2023-02-14T15:17:00.449Z,26.08
2023-02-14T15:19:51.760Z,27.20
2023-02-14T15:22:19.893Z,26.55
2023-02-14T15:24:47.347Z,24.80
2023-02-14T15:27:26.040Z,31.73
2023-02-14T15:29:58.455Z,26.63
2023-02-14T15:32:29.337Z,29.80
2023-02-14T15:34:57.021Z,30.40
2023-02-14T15:37:25.612Z,25.70
2023-02-14T15:39:58.220Z,27.85
2023-02-14T15:42:34.039Z,29.25
2023-02-14T15:45:26.025Z,28.98
2023-02-14T15:47:56.740Z,27.73
2023-02-14T15:50:33.982Z,25.15
2023-02-14T15:53:08.888Z,23.48
2023-02-14T15:55:36.390Z,28.05
2023-02-14T15:58:07.135Z,29.55
2023-02-14T16:00:35.556Z,27.45
2023-02-14T16:03:10.757Z,24.38
2023-02-14T16:05:38.269Z,28.50
2023-02-14T16:08:22.935Z,26.58
2023-02-14T16:11:05.317Z,24.52
2023-02-14T16:13:36.144Z,27.38
2023-02-14T16:16:09.354Z,24.48
2023-02-14T16:18:56.502Z,29.50
2023-02-14T16:21:34.573Z,25.63
2023-02-14T16:24:07.680Z,28.60
2023-02-14T16:26:38.615Z,27.20
2023-02-14T16:29:08.336Z,29.25
2023-02-14T16:31:39.241Z,29.75
2023-02-14T16:34:06.302Z,28.30
2023-02-14T16:36:34.338Z,28.15
2023-02-14T16:39:06.405Z,29.73
2023-02-14T16:41:34.802Z,32.42
2023-02-14T16:44:01.942Z,27.98
2023-02-14T16:46:35.314Z,29.05
2023-02-14T16:49:02.335Z,31.05
2023-02-14T16:51:33.509Z,26.90
2023-02-14T16:54:05.892Z,30.52
2023-02-14T16:56:55.912Z,27.52
2023-02-14T16:59:22.912Z,30.73
2023-02-14T17:01:50.135Z,31.98
2023-02-14T17:04:17.144Z,24.25
2023-02-14T17:06:51.500Z,27.02
2023-02-14T17:09:27.880Z,28.70
2023-02-14T17:11:58.713Z,28.63
2023-02-14T17:14:33.287Z,26.52
2023-02-14T17:17:01.212Z,29.58
2023-02-14T17:19:28.550Z,26.98
2023-02-14T17:21:59.149Z,28.20
2023-02-14T17:24:26.653Z,30.27
2023-02-14T17:26:53.904Z,31.50
2023-02-14T17:29:20.742Z,34.30
2023-02-14T17:31:48.900Z,31.38
2023-02-14T17:34:16.588Z,36.15
2023-02-14T17:36:44.175Z,31.88
2023-02-14T17:39:11.843Z,31.77
2023-02-14T17:41:40.064Z,33.70
2023-02-14T17:44:07.392Z,31.33
2023-02-14T17:46:35.364Z,30.13
2023-02-14T17:49:03.008Z,28.15
2023-02-14T17:51:30.710Z,35.60
2023-02-14T17:53:59.117Z,28.80
2023-02-14T17:56:26.935Z,29.13
2023-02-14T17:58:55.525Z,29.67
2023-02-14T18:01:31.476Z,29.25
2023-02-14T18:03:58.650Z,31.33
2023-02-14T18:06:26.638Z,30.42
2023-02-14T18:08:57.367Z,29.35
2023-02-14T18:11:28.680Z,29.83
2023-02-14T18:13:58.971Z,34.28
2023-02-14T18:16:26.821Z,27.17
2023-02-14T18:18:55.248Z,27.30
2023-02-14T18:21:24.662Z,28.48
2023-02-14T18:23:52.727Z,29.20
2023-02-14T18:26:20.638Z,32.47
2023-02-14T18:28:50.912Z,26.17
2023-02-14T18:31:19.488Z,32.42
2023-02-14T18:33:49.902Z,29.35
2023-02-14T18:36:21.463Z,30.05
2023-02-14T18:38:49.510Z,34.92
2023-02-14T18:41:20.490Z,29.70
2023-02-14T18:43:50.196Z,30.33
2023-02-14T18:46:22.904Z,29.17
2023-02-14T18:48:51.019Z,28.30
2023-02-14T18:51:22.016Z,32.15
2023-02-14T18:53:52.118Z,30.50
2023-02-14T18:56:23.653Z,35.38
2023-02-14T18:59:00.897Z,27.13
2023-02-14T19:01:33.087Z,27.85
2023-02-14T19:04:01.923Z,31.02
2023-02-14T19:06:32.143Z,31.17
2023-02-14T19:08:59.529Z,34.45
2023-02-14T19:11:31.553Z,35.90
2023-02-14T19:14:00.885Z,30.58
2023-02-14T19:16:33.574Z,31.42
2023-02-14T19:19:03.001Z,35.83
2023-02-14T19:21:35.118Z,33.55
2023-02-14T19:24:07.090Z,32.13
2023-02-14T19:32:00.061Z,30.75
2023-02-14T19:34:31.389Z,34.05
2023-02-14T19:37:01.331Z,32.28
2023-02-14T19:39:29.975Z,31.48
2023-02-14T19:41:57.702Z,32.45
2023-02-14T19:44:25.901Z,33.22
2023-02-14T19:46:56.300Z,32.85
2023-02-14T19:49:24.022Z,35.25
2023-02-14T19:51:52.175Z,32.45
2023-02-14T19:54:22.494Z,36.13
2023-02-14T19:56:50.524Z,39.25
2023-02-14T19:59:22.976Z,34.25
2023-02-14T20:01:53.946Z,35.85
2023-02-14T20:04:30.799Z,33.53
2023-02-14T20:06:59.003Z,31.33
2023-02-14T20:09:26.111Z,36.65
2023-02-14T20:11:56.035Z,33.45
2023-02-14T20:14:49.898Z,36.58
2023-02-14T20:17:18.733Z,36.33
2023-02-14T20:19:45.911Z,34.88
2023-02-14T20:22:13.211Z,37.53
2023-02-14T20:24:40.480Z,37.15
2023-02-14T20:27:08.762Z,38.63
2023-02-14T20:29:40.543Z,33.35
2023-02-14T20:32:08.797Z,37.58
2023-02-14T20:34:37.332Z,36.70
2023-02-14T20:37:05.776Z,35.53
2023-02-14T20:39:36.389Z,36.20
2023-02-14T20:42:05.503Z,35.80
2023-02-14T20:44:33.719Z,35.80
2023-02-14T20:47:01.428Z,35.28
2023-02-14T20:49:31.473Z,37.47
2023-02-14T20:51:59.346Z,36.08
2023-02-14T20:54:28.646Z,38.50
2023-02-14T20:56:57.946Z,36.25
2023-02-14T20:59:28.437Z,38.10
2023-02-14T21:01:57.729Z,36.22
2023-02-14T21:04:25.537Z,35.40
2023-02-14T21:06:52.536Z,36.10
2023-02-14T21:09:20.744Z,40.38
2023-02-14T21:11:47.898Z,33.63
2023-02-14T21:14:17.227Z,33.05
2023-02-14T21:16:44.260Z,34.50
2023-02-14T21:19:11.136Z,33.53
2023-02-14T21:21:38.482Z,35.22
2023-02-14T21:24:12.528Z,33.63
2023-02-14T21:26:39.565Z,33.03
2023-02-14T21:29:07.457Z,35.63
2023-02-14T21:31:35.372Z,35.80
2023-02-14T21:34:04.753Z,32.45
2023-02-14T21:36:35.857Z,36.00
2023-02-14T21:39:04.508Z,30.42
2023-02-14T21:41:33.842Z,33.45
2023-02-14T21:44:03.241Z,35.95
2023-02-14T21:46:36.155Z,35.70
2023-02-14T21:49:24.300Z,31.63
2023-02-14T21:51:52.659Z,33.20
2023-02-14T21:54:20.589Z,41.55
2023-02-14T21:56:49.761Z,32.38
2023-02-14T21:59:17.645Z,34.55
2023-02-14T22:01:44.678Z,32.67
2023-02-14T22:04:12.690Z,30.85
2023-02-14T22:06:41.975Z,38.85
2023-02-14T22:09:12.420Z,40.97
2023-02-14T22:11:39.326Z,38.30
2023-02-14T22:14:06.667Z,33.50
2023-02-14T22:16:36.952Z,33.10
2023-02-14T22:19:06.074Z,36.67
2023-02-14T22:21:33.856Z,35.35
2023-02-14T22:24:01.893Z,32.97
2023-02-14T22:26:34.510Z,33.20
2023-02-14T22:29:02.710Z,31.65
2023-02-14T22:31:34.978Z,31.27
2023-02-14T22:34:03.480Z,34.05
2023-02-14T22:36:31.138Z,32.38
2023-02-14T22:38:58.626Z,33.67
2023-02-14T22:41:26.519Z,38.08
2023-02-14T22:43:54.398Z,32.65
2023-02-14T22:46:25.304Z,38.10
2023-02-14T22:48:53.553Z,38.55
2023-02-14T22:51:30.304Z,33.20
2023-02-14T22:54:00.728Z,32.00
2023-02-14T22:56:38.711Z,35.30
2023-02-14T22:59:18.837Z,34.42
2023-02-14T23:01:46.317Z,33.70
2023-02-14T23:04:15.808Z,32.22
2023-02-14T23:06:43.119Z,34.95
2023-02-14T23:09:12.450Z,39.42
2023-02-14T23:11:41.911Z,36.30
2023-02-14T23:14:30.065Z,36.28
2023-02-14T23:17:26.330Z,37.22
2023-02-14T23:20:12.099Z,34.78
2023-02-14T23:22:40.921Z,36.40
2023-02-14T23:25:10.942Z,36.53
2023-02-14T23:27:44.667Z,35.25
2023-02-14T23:30:16.067Z,40.33
2023-02-14T23:32:43.488Z,35.20
2023-02-14T23:35:12.002Z,38.10
2023-02-14T23:37:38.967Z,36.40
2023-02-14T23:40:07.119Z,34.40
2023-02-14T23:42:34.099Z,35.95
2023-02-14T23:45:21.084Z,36.85
2023-02-14T23:47:48.056Z,37.55
2023-02-14T23:50:15.549Z,35.08
2023-02-14T23:52:44.418Z,39.63
2023-02-14T23:55:12.268Z,35.28
2023-02-14T23:57:39.651Z,37.17
